createdAt,value
2019-02-17T00:02:40.939Z," 6.30"
2019-02-17T00:07:37.086Z," 6.38"
2019-02-17T00:12:32.809Z," 6.24"
2019-02-17T00:17:29.153Z," 6.04"
2019-02-17T00:22:24.838Z," 5.89"
2019-02-17T00:27:21.131Z," 5.86"
2019-02-17T00:32:17.494Z," 5.91"
2019-02-17T00:37:12.671Z," 5.71"
2019-02-17T00:42:09.703Z," 5.73"
2019-02-17T00:47:06.024Z," 5.59"
2019-02-17T00:52:01.365Z," 5.46"
2019-02-17T00:56:56.990Z," 5.35"
2019-02-17T01:01:53.608Z," 5.23"
2019-02-17T01:06:49.174Z," 5.39"
2019-02-17T01:11:45.069Z," 5.44"
2019-02-17T01:16:41.434Z," 5.43"
2019-02-17T01:21:37.232Z," 5.25"
2019-02-17T01:26:32.724Z," 5.08"
2019-02-17T01:31:29.397Z," 5.10"
2019-02-17T01:36:25.704Z," 5.11"
2019-02-17T01:41:22.066Z," 5.35"
2019-02-17T01:46:17.676Z," 5.54"
2019-02-17T01:51:13.374Z," 5.79"
2019-02-17T01:56:09.190Z," 6.08"
2019-02-17T02:01:04.854Z," 6.20"
2019-02-17T02:06:00.590Z," 6.01"
2019-02-17T02:10:56.173Z," 5.51"
2019-02-17T02:15:52.477Z," 5.33"
2019-02-17T02:20:47.739Z," 5.21"
2019-02-17T02:25:44.437Z," 5.21"
2019-02-17T02:30:39.715Z," 5.12"
2019-02-17T02:35:35.957Z," 5.12"
2019-02-17T02:40:31.655Z," 4.93"
2019-02-17T02:45:27.874Z," 4.82"
2019-02-17T02:50:23.570Z," 4.67"
2019-02-17T02:55:21.241Z," 4.60"
2019-02-17T03:00:16.554Z," 4.49"
2019-02-17T03:05:11.957Z," 4.53"
2019-02-17T03:10:07.664Z," 4.55"
2019-02-17T03:15:03.402Z," 4.40"
2019-02-17T03:19:59.008Z," 4.35"
2019-02-17T03:24:54.751Z," 4.50"
2019-02-17T03:29:51.329Z," 4.50"
2019-02-17T03:34:47.348Z," 4.49"
2019-02-17T03:39:44.026Z," 4.49"
2019-02-17T03:44:39.481Z," 4.22"
2019-02-17T03:49:34.861Z," 3.99"
2019-02-17T03:54:29.924Z," 3.83"
2019-02-17T03:59:26.858Z," 3.98"
2019-02-17T04:04:23.145Z," 3.98"
2019-02-17T04:09:19.455Z," 3.73"
2019-02-17T04:14:15.618Z," 3.77"
2019-02-17T04:19:11.685Z," 3.63"
2019-02-17T04:24:07.374Z," 3.69"
2019-02-17T04:29:03.011Z," 3.70"
2019-02-17T04:33:59.245Z," 3.95"
2019-02-17T04:38:54.949Z," 4.19"
2019-02-17T04:43:50.658Z," 4.50"
2019-02-17T04:48:47.424Z," 4.53"
2019-02-17T04:53:43.216Z," 4.56"
2019-02-17T04:58:38.800Z," 4.59"
2019-02-17T05:03:34.897Z," 4.62"
2019-02-17T05:08:31.022Z," 4.62"
2019-02-17T05:13:26.515Z," 4.48"
2019-02-17T05:18:21.865Z," 4.24"
2019-02-17T05:23:17.481Z," 4.01"
2019-02-17T05:28:13.000Z," 3.81"
2019-02-17T05:33:08.974Z," 3.95"
2019-02-17T05:38:06.059Z," 4.13"
2019-02-17T05:43:02.431Z," 4.32"
2019-02-17T05:47:57.751Z," 4.32"
2019-02-17T05:52:53.425Z," 4.32"
2019-02-17T05:57:49.307Z," 4.30"
2019-02-17T06:02:45.777Z," 4.12"
2019-02-17T06:07:41.426Z," 3.84"
2019-02-17T06:12:36.962Z," 3.80"
2019-02-17T06:17:32.993Z," 3.92"
2019-02-17T06:22:28.856Z," 4.02"
2019-02-17T06:27:25.448Z," 3.88"
2019-02-17T06:32:20.887Z," 3.92"
2019-02-17T06:37:17.450Z," 3.74"
2019-02-17T06:42:12.645Z," 3.47"
2019-02-17T06:47:08.352Z," 3.25"
2019-02-17T06:52:03.873Z," 3.25"
2019-02-17T06:56:59.506Z," 3.21"
2019-02-17T07:01:54.965Z," 3.25"
2019-02-17T07:06:50.427Z," 3.31"
2019-02-17T07:11:46.173Z," 3.25"
2019-02-17T07:16:42.718Z," 3.08"
2019-02-17T07:21:37.947Z," 3.19"
2019-02-17T07:26:34.276Z," 3.28"
2019-02-17T07:31:35.041Z," 3.34"
2019-02-17T07:36:29.878Z," 3.47"
2019-02-17T07:41:26.163Z," 3.65"
2019-02-17T07:46:21.759Z," 3.73"
2019-02-17T07:51:17.565Z," 3.69"
2019-02-17T07:56:13.529Z," 3.87"
2019-02-17T08:01:09.796Z," 4.20"
2019-02-17T08:06:05.633Z," 4.49"
2019-02-17T08:11:03.969Z," 4.71"
2019-02-17T08:15:59.193Z," 4.97"
2019-02-17T08:20:54.939Z," 5.00"
2019-02-17T08:25:50.795Z," 5.29"
2019-02-17T08:30:46.544Z," 5.33"
2019-02-17T08:35:42.373Z," 5.69"
2019-02-17T08:40:37.690Z," 5.93"
2019-02-17T08:45:33.580Z," 5.91"
2019-02-17T08:50:29.787Z," 6.11"
2019-02-17T08:55:25.472Z," 6.31"
2019-02-17T09:00:21.314Z," 6.44"
2019-02-17T09:05:17.214Z," 6.60"
2019-02-17T09:10:13.215Z," 6.64"
2019-02-17T09:15:09.523Z," 6.93"
2019-02-17T09:20:04.749Z," 7.10"
2019-02-17T09:25:00.638Z," 7.32"
2019-02-17T09:29:56.774Z," 7.48"
2019-02-17T09:34:53.604Z," 7.79"
2019-02-17T09:39:49.392Z," 7.93"
2019-02-17T09:44:45.042Z," 8.15"
2019-02-17T09:49:41.222Z," 8.51"
2019-02-17T09:54:38.064Z," 8.76"
2019-02-17T09:59:34.624Z," 8.79"
2019-02-17T10:04:30.455Z," 8.95"
2019-02-17T10:09:26.441Z," 9.18"
2019-02-17T10:14:23.304Z," 9.36"
2019-02-17T10:19:19.033Z," 9.65"
2019-02-17T10:24:15.905Z," 9.97"
2019-02-17T10:29:13.423Z,10.12
2019-02-17T10:34:09.130Z,10.46
2019-02-17T10:39:06.302Z,10.97
2019-02-17T10:44:02.273Z,11.30
2019-02-17T10:48:59.044Z,11.48
2019-02-17T10:53:55.117Z,11.77
2019-02-17T10:58:51.389Z,12.18
2019-02-17T11:03:47.552Z,12.60
2019-02-17T11:08:43.512Z,12.82
2019-02-17T11:13:40.691Z,13.01
2019-02-17T11:18:36.345Z,12.93
2019-02-17T11:23:32.764Z,13.18
2019-02-17T11:28:28.796Z,13.54
2019-02-17T11:33:25.026Z,13.74
2019-02-17T11:38:22.121Z,14.12
2019-02-17T11:43:18.136Z,14.43
2019-02-17T11:48:14.284Z,14.36
2019-02-17T11:53:11.257Z,14.32
2019-02-17T11:58:06.650Z,14.07
2019-02-17T12:03:07.914Z,14.26
2019-02-17T12:08:01.326Z,14.48
2019-02-17T12:12:57.177Z,14.62
2019-02-17T12:17:54.056Z,14.62
2019-02-17T12:22:49.194Z,14.73
2019-02-17T12:27:46.101Z,15.07
2019-02-17T12:32:42.790Z,15.14
2019-02-17T12:37:38.217Z,15.22
2019-02-17T12:42:33.753Z,15.36
2019-02-17T12:47:29.977Z,15.51
2019-02-17T12:52:27.017Z,15.39
2019-02-17T12:57:22.907Z,15.43
2019-02-17T13:02:19.750Z,15.43
2019-02-17T13:07:15.371Z,15.57
2019-02-17T13:12:10.910Z,15.39
2019-02-17T13:17:07.320Z,15.55
2019-02-17T13:22:04.140Z,15.64
2019-02-17T13:26:59.462Z,15.47
2019-02-17T13:31:56.095Z,15.51
2019-02-17T13:36:51.582Z,15.52
2019-02-17T13:41:47.484Z,15.59
2019-02-17T13:46:43.442Z,15.72
2019-02-17T13:51:39.257Z,15.76
2019-02-17T13:56:36.321Z,15.84
2019-02-17T14:01:31.876Z,15.90
2019-02-17T14:06:27.748Z,16.08
2019-02-17T14:11:23.816Z,16.13
2019-02-17T14:16:19.508Z,16.23
2019-02-17T14:21:16.400Z,16.10
2019-02-17T14:26:12.861Z,15.92
2019-02-17T14:31:08.372Z,15.92
2019-02-17T14:36:04.152Z,15.77
2019-02-17T14:40:59.825Z,15.88
2019-02-17T14:45:55.619Z,15.80
2019-02-17T14:50:52.603Z,15.79
2019-02-17T14:55:48.026Z,15.97
2019-02-17T15:00:44.998Z,15.95
2019-02-17T15:05:41.908Z,16.04
2019-02-17T15:10:38.200Z,16.08
2019-02-17T15:15:33.892Z,15.90
2019-02-17T15:20:30.445Z,15.88
2019-02-17T15:25:25.954Z,15.82
2019-02-17T15:30:21.469Z,15.72
2019-02-17T15:35:17.576Z,15.64
2019-02-17T15:40:13.484Z,15.59
2019-02-17T15:45:09.080Z,15.40
2019-02-17T15:50:04.713Z,15.22
2019-02-17T15:55:00.430Z,15.07
2019-02-17T15:59:55.916Z,14.92
2019-02-17T16:04:51.572Z,14.68
2019-02-17T16:09:48.126Z,14.73
2019-02-17T16:14:43.635Z,14.59
2019-02-17T16:19:39.324Z,14.36
2019-02-17T16:24:35.048Z,14.28
2019-02-17T16:29:30.662Z,14.12
2019-02-17T16:34:26.303Z,14.18
2019-02-17T16:39:22.256Z,14.00
2019-02-17T16:44:18.050Z,13.68
2019-02-17T16:49:13.500Z,13.50
2019-02-17T16:54:09.107Z,13.23
2019-02-17T16:59:04.081Z,13.09
2019-02-17T17:03:59.657Z,12.90
2019-02-17T17:08:56.216Z,12.64
2019-02-17T17:13:51.394Z,12.46
2019-02-17T17:18:47.049Z,12.37
2019-02-17T17:23:43.137Z,12.27
2019-02-17T17:28:39.980Z,12.10
2019-02-17T17:33:35.653Z,12.10
2019-02-17T17:38:31.473Z,12.03
2019-02-17T17:43:28.145Z,11.81
2019-02-17T17:48:24.069Z,11.77
2019-02-17T17:53:19.448Z,11.70
2019-02-17T17:58:15.184Z,11.59
2019-02-17T18:03:11.869Z,11.51
2019-02-17T18:08:07.215Z,11.50
2019-02-17T18:13:03.524Z,11.47
2019-02-17T18:18:00.989Z,11.35
2019-02-17T18:22:56.378Z,11.18
2019-02-17T18:27:52.844Z,11.12
2019-02-17T18:32:48.039Z,10.97
2019-02-17T18:37:43.483Z,10.87
2019-02-17T18:42:39.141Z,10.82
2019-02-17T18:47:34.627Z,10.72
2019-02-17T18:52:31.297Z,10.90
2019-02-17T18:57:27.643Z,10.81
2019-02-17T19:02:24.483Z,10.84
2019-02-17T19:07:19.895Z,10.78
2019-02-17T19:12:15.232Z,10.92
2019-02-17T19:17:10.918Z,11.19
2019-02-17T19:22:06.723Z,11.25
2019-02-17T19:27:03.235Z,11.33
2019-02-17T19:31:59.001Z,11.25
2019-02-17T19:36:54.725Z,11.30
2019-02-17T19:41:50.897Z,10.94
2019-02-17T19:46:46.542Z,10.79
2019-02-17T19:51:42.050Z,10.61
2019-02-17T19:56:39.844Z,10.56
2019-02-17T20:01:34.552Z,10.42
2019-02-17T20:06:31.303Z,10.15
2019-02-17T20:11:26.568Z," 9.92"
2019-02-17T20:16:22.068Z," 9.74"
2019-02-17T20:21:17.781Z," 9.58"
2019-02-17T20:26:13.738Z," 9.50"
2019-02-17T20:31:09.185Z," 9.31"
2019-02-17T20:36:05.370Z," 9.25"
2019-02-17T20:41:02.172Z," 9.11"
2019-02-17T20:45:58.064Z," 9.06"
2019-02-17T20:50:53.632Z," 8.89"
2019-02-17T20:55:49.460Z," 8.85"
2019-02-17T21:00:46.157Z," 8.85"
2019-02-17T21:05:42.253Z," 8.81"
2019-02-17T21:10:37.137Z," 8.82"
2019-02-17T21:15:32.726Z," 8.89"
2019-02-17T21:20:28.272Z," 9.13"
2019-02-17T21:25:24.051Z," 9.11"
2019-02-17T21:30:20.909Z," 9.22"
2019-02-17T21:35:16.534Z," 9.34"
2019-02-17T21:40:13.361Z," 9.37"
2019-02-17T21:45:09.968Z," 9.48"
2019-02-17T21:50:06.853Z," 9.55"
2019-02-17T21:55:02.447Z," 9.51"
2019-02-17T21:59:58.244Z," 9.54"
2019-02-17T22:04:54.162Z," 9.58"
2019-02-17T22:09:49.776Z," 9.51"
2019-02-17T22:14:46.436Z," 9.55"
2019-02-17T22:19:41.719Z," 9.59"
2019-02-17T22:24:37.410Z," 9.36"
2019-02-17T22:29:33.565Z," 9.02"
2019-02-17T22:34:29.113Z," 8.91"
2019-02-17T22:39:24.723Z," 8.89"
2019-02-17T22:44:20.736Z," 8.81"
2019-02-17T22:49:16.998Z," 8.88"
2019-02-17T22:54:13.678Z," 8.79"
2019-02-17T22:59:10.750Z," 8.78"
2019-02-17T23:04:06.330Z," 8.87"
2019-02-17T23:09:02.035Z," 8.84"
2019-02-17T23:13:58.687Z," 8.73"
2019-02-17T23:18:54.167Z," 8.60"
2019-02-17T23:23:50.776Z," 8.61"
2019-02-17T23:28:46.815Z," 8.48"
2019-02-17T23:33:42.599Z," 8.51"
2019-02-17T23:38:39.294Z," 8.27"
2019-02-17T23:43:34.438Z," 8.15"
2019-02-17T23:48:31.104Z," 8.15"
2019-02-17T23:53:26.323Z," 8.06"
2019-02-17T23:58:22.301Z," 7.97"
